Time,TemperatureF,DewpointF,PressureIn,WindDirection,WindDirectionDegrees,WindSpeedMPH,WindSpeedGustMPH,Humidity,HourlyPrecipIn,Conditions,Clouds,dailyrainin,SoftwareType,DateUTC
2013-03-16 00:08:00,32.0,23.3,29.64,NNE,22,3.8,-999.0,70,-99.99,,,0.00,Acu-Link.com,2013-03-16 04:08:00,
2013-03-16 00:23:00,31.6,22.3,29.64,NNW,337,3.8,-999.0,68,-99.99,,,0.00,Acu-Link.com,2013-03-16 04:23:00,
2013-03-16 00:38:00,31.6,21.2,29.64,WSW,247,4.3,-999.0,65,-99.99,,,0.00,Acu-Link.com,2013-03-16 04:38:00,
2013-03-16 00:53:00,31.8,21.1,29.64,North,0,4.3,-999.0,64,-99.99,,,0.00,Acu-Link.com,2013-03-16 04:53:00,
2013-03-16 01:08:00,31.5,20.7,29.64,NW,315,1.6,-999.0,64,-99.99,,,0.00,Acu-Link.com,2013-03-16 05:08:00,
2013-03-16 01:24:00,30.9,20.6,29.65,NNW,337,3.1,-999.0,65,-99.99,,,0.00,Acu-Link.com,2013-03-16 05:24:00,
2013-03-16 01:39:00,31.3,20.9,29.65,NNW,337,2.2,-999.0,65,-99.99,,,0.00,Acu-Link.com,2013-03-16 05:39:00,
2013-03-16 01:54:00,31.5,21.4,29.66,NNW,337,1.6,-999.0,66,-99.99,,,0.00,Acu-Link.com,2013-03-16 05:54:00,
2013-03-16 02:10:00,31.1,22.5,29.67,NNW,337,2.2,-999.0,70,-99.99,,,0.00,Acu-Link.com,2013-03-16 06:10:00,
2013-03-16 02:25:00,30.7,22.1,29.67,NNW,337,1.6,-999.0,70,-99.99,,,0.00,Acu-Link.com,2013-03-16 06:25:00,
2013-03-16 02:40:00,30.0,20.8,29.68,NNW,337,2.7,-999.0,68,-99.99,,,0.00,Acu-Link.com,2013-03-16 06:40:00,
2013-03-16 02:56:00,29.5,19.5,29.69,NNW,337,1.1,-999.0,66,-99.99,,,0.00,Acu-Link.com,2013-03-16 06:56:00,
2013-03-16 03:26:00,27.7,18.2,29.69,NNE,22,1.1,-999.0,67,-99.99,,,0.00,Acu-Link.com,2013-03-16 07:26:00,
2013-03-16 03:41:00,27.3,18.5,29.69,North,0,2.2,-999.0,69,-99.99,,,0.00,Acu-Link.com,2013-03-16 07:41:00,
2013-03-16 03:57:00,26.6,17.8,29.70,North,0,0.0,-999.0,69,-99.99,,,0.00,Acu-Link.com,2013-03-16 07:57:00,
2013-03-16 04:12:00,26.1,18.0,29.71,North,0,1.1,-999.0,71,-99.99,,,0.00,Acu-Link.com,2013-03-16 08:12:00,
2013-03-16 04:27:00,25.0,18.2,29.71,North,0,0.0,-999.0,75,-99.99,,,0.00,Acu-Link.com,2013-03-16 08:27:00,
2013-03-16 04:42:00,25.7,16.6,29.72,North,0,1.6,-999.0,68,-99.99,,,0.00,Acu-Link.com,2013-03-16 08:42:00,
2013-03-16 04:58:00,25.3,15.2,29.72,ESE,112,0.0,-999.0,65,-99.99,,,0.00,Acu-Link.com,2013-03-16 08:58:00,
2013-03-16 05:13:00,24.8,14.0,29.73,SSE,157,0.0,-999.0,63,-99.99,,,0.00,Acu-Link.com,2013-03-16 09:13:00,
2013-03-16 05:28:00,24.1,14.0,29.73,SW,225,1.1,-999.0,65,-99.99,,,0.00,Acu-Link.com,2013-03-16 09:28:00,
2013-03-16 05:44:00,24.8,12.5,29.73,SW,225,2.7,-999.0,59,-99.99,,,0.00,Acu-Link.com,2013-03-16 09:44:00,
2013-03-16 05:59:00,25.2,12.9,29.73,SW,225,3.1,-999.0,59,-99.99,,,0.00,Acu-Link.com,2013-03-16 09:59:00,
2013-03-16 06:14:00,24.4,12.9,29.73,SW,225,2.2,-999.0,61,-99.99,,,0.00,Acu-Link.com,2013-03-16 10:14:00,
2013-03-16 06:29:00,24.8,12.9,29.74,NNW,337,1.6,-999.0,60,-99.99,,,0.00,Acu-Link.com,2013-03-16 10:29:00,
2013-03-16 06:45:00,23.4,12.3,29.74,NNW,337,1.6,-999.0,62,-99.99,,,0.00,Acu-Link.com,2013-03-16 10:45:00,
2013-03-16 07:00:00,22.6,13.0,29.76,NNW,337,1.6,-999.0,66,-99.99,,,0.00,Acu-Link.com,2013-03-16 11:00:00,
2013-03-16 07:15:00,22.1,13.2,29.75,NNW,337,0.0,-999.0,68,-99.99,,,0.00,Acu-Link.com,2013-03-16 11:15:00,
2013-03-16 07:30:00,22.1,12.5,29.77,NNW,337,0.0,-999.0,66,-99.99,,,0.00,Acu-Link.com,2013-03-16 11:30:00,
2013-03-16 07:46:00,23.0,13.0,29.77,NNW,337,0.0,-999.0,65,-99.99,,,0.00,Acu-Link.com,2013-03-16 11:46:00,
2013-03-16 08:01:00,27.9,14.6,29.77,NNW,337,0.0,-999.0,57,-99.99,,,0.00,Acu-Link.com,2013-03-16 12:01:00,
2013-03-16 08:16:00,28.9,13.1,29.77,NNW,337,0.0,-999.0,51,-99.99,,,0.00,Acu-Link.com,2013-03-16 12:16:00,
2013-03-16 08:32:00,29.5,14.1,29.78,NNW,337,1.6,-999.0,52,-99.99,,,0.00,Acu-Link.com,2013-03-16 12:32:00,
2013-03-16 08:47:00,30.0,14.6,29.78,NNW,337,1.6,-999.0,52,-99.99,,,0.00,Acu-Link.com,2013-03-16 12:47:00,
2013-03-16 09:02:00,30.6,14.6,29.78,NNW,337,2.2,-999.0,51,-99.99,,,0.00,Acu-Link.com,2013-03-16 13:02:00,
2013-03-16 09:17:00,31.1,13.7,29.78,NNW,337,3.8,-999.0,48,-99.99,,,0.00,Acu-Link.com,2013-03-16 13:17:00,
2013-03-16 09:32:00,31.1,15.1,29.78,NNW,337,3.8,-999.0,51,-99.99,,,0.00,Acu-Link.com,2013-03-16 13:32:00,
2013-03-16 09:48:00,31.8,13.9,29.78,NNW,337,3.8,-999.0,47,-99.99,,,0.00,Acu-Link.com,2013-03-16 13:48:00,
2013-03-16 10:03:00,31.3,14.8,29.78,NNW,337,5.8,-999.0,50,-99.99,,,0.00,Acu-Link.com,2013-03-16 14:03:00,
2013-03-16 10:18:00,31.6,14.7,29.78,WNW,292,2.2,-999.0,49,-99.99,,,0.00,Acu-Link.com,2013-03-16 14:18:00,
2013-03-16 10:34:00,31.3,14.4,29.77,North,0,2.7,-999.0,49,-99.99,,,0.00,Acu-Link.com,2013-03-16 14:34:00,
2013-03-16 10:49:00,31.5,14.5,29.78,WSW,247,3.8,-999.0,49,-99.99,,,0.00,Acu-Link.com,2013-03-16 14:49:00,
2013-03-16 11:04:00,31.1,14.2,29.76,NNW,337,1.6,-999.0,49,-99.99,,,0.00,Acu-Link.com,2013-03-16 15:04:00,
2013-03-16 11:20:00,32.2,15.2,29.76,NNW,337,2.7,-999.0,49,-99.99,,,0.00,Acu-Link.com,2013-03-16 15:20:00,
2013-03-16 11:35:00,31.8,15.3,29.76,NNW,337,3.1,-999.0,50,-99.99,,,0.00,Acu-Link.com,2013-03-16 15:35:00,
2013-03-16 11:50:00,32.9,15.4,29.76,NNW,337,3.8,-999.0,48,-99.99,,,0.00,Acu-Link.com,2013-03-16 15:50:00,
2013-03-16 12:05:00,32.9,15.4,29.75,NNW,337,4.3,-999.0,48,-99.99,,,0.00,Acu-Link.com,2013-03-16 16:05:00,
2013-03-16 12:20:00,34.0,13.9,29.75,NNW,337,2.7,-999.0,43,-99.99,,,0.00,Acu-Link.com,2013-03-16 16:20:00,
2013-03-16 12:36:00,34.0,13.3,29.74,NNW,337,3.8,-999.0,42,-99.99,,,0.00,Acu-Link.com,2013-03-16 16:36:00,
2013-03-16 12:51:00,36.1,15.3,29.74,ESE,112,5.8,-999.0,42,-99.99,,,0.00,Acu-Link.com,2013-03-16 16:51:00,
2013-03-16 13:06:00,35.1,13.8,29.74,NNW,337,0.0,-999.0,41,-99.99,,,0.00,Acu-Link.com,2013-03-16 17:06:00,
2013-03-16 13:22:00,34.5,12.7,29.73,NNW,337,4.3,-999.0,40,-99.99,,,0.00,Acu-Link.com,2013-03-16 17:22:00,
2013-03-16 13:37:00,36.7,14.7,29.72,WSW,247,1.6,-999.0,40,-99.99,,,0.00,Acu-Link.com,2013-03-16 17:37:00,
2013-03-16 13:52:00,36.9,13.1,29.72,NNW,337,3.1,-999.0,37,-99.99,,,0.00,Acu-Link.com,2013-03-16 17:52:00,
2013-03-16 14:08:00,36.1,12.4,29.72,ESE,112,2.2,-999.0,37,-99.99,,,0.00,Acu-Link.com,2013-03-16 18:08:00,
2013-03-16 14:23:00,36.3,13.2,29.72,West,270,4.3,-999.0,38,-99.99,,,0.00,Acu-Link.com,2013-03-16 18:23:00,
2013-03-16 14:38:00,35.2,12.8,29.72,SW,225,3.8,-999.0,39,-99.99,,,0.00,Acu-Link.com,2013-03-16 18:38:00,
2013-03-16 14:53:00,35.6,11.9,29.72,South,180,3.1,-999.0,37,-99.99,,,0.00,Acu-Link.com,2013-03-16 18:53:00,
2013-03-16 15:09:00,36.0,11.6,29.71,NNW,337,4.7,-999.0,36,-99.99,,,0.00,Acu-Link.com,2013-03-16 19:09:00,
2013-03-16 15:24:00,36.1,11.8,29.73,SW,225,4.7,-999.0,36,-99.99,,,0.00,Acu-Link.com,2013-03-16 19:24:00,
2013-03-16 15:39:00,36.3,11.3,29.72,NW,315,1.1,-999.0,35,-99.99,,,0.00,Acu-Link.com,2013-03-16 19:39:00,
2013-03-16 15:54:00,35.1,10.2,29.70,NW,315,2.2,-999.0,35,-99.99,,,0.00,Acu-Link.com,2013-03-16 19:54:00,
2013-03-16 16:09:00,37.8,13.2,29.70,NW,315,4.3,-999.0,36,-99.99,,,0.00,Acu-Link.com,2013-03-16 20:09:00,
2013-03-16 16:25:00,35.4,11.8,29.69,South,180,5.8,-999.0,37,-99.99,,,0.00,Acu-Link.com,2013-03-16 20:25:00,
2013-03-16 16:40:00,36.0,12.9,29.69,SW,225,1.6,-999.0,38,-99.99,,,0.00,Acu-Link.com,2013-03-16 20:40:00,
2013-03-16 16:55:00,38.3,13.7,29.69,WSW,247,0.0,-999.0,36,-99.99,,,0.00,Acu-Link.com,2013-03-16 20:55:00,
2013-03-16 17:11:00,37.8,12.6,29.69,SW,225,1.1,-999.0,35,-99.99,,,0.00,Acu-Link.com,2013-03-16 21:11:00,
2013-03-16 17:26:00,37.8,12.6,29.69,WSW,247,4.3,-999.0,35,-99.99,,,0.00,Acu-Link.com,2013-03-16 21:26:00,
2013-03-16 17:41:00,36.9,13.1,29.69,SW,225,1.1,-999.0,37,-99.99,,,0.00,Acu-Link.com,2013-03-16 21:41:00,
2013-03-16 17:56:00,36.1,13.0,29.69,SW,225,1.6,-999.0,38,-99.99,,,0.00,Acu-Link.com,2013-03-16 21:56:00,
2013-03-16 18:11:00,36.1,14.7,29.69,SW,225,2.2,-999.0,41,-99.99,,,0.00,Acu-Link.com,2013-03-16 22:11:00,
2013-03-16 18:27:00,35.8,13.9,29.70,SW,225,0.0,-999.0,40,-99.99,,,0.00,Acu-Link.com,2013-03-16 22:27:00,
2013-03-16 18:42:00,35.2,14.5,29.71,SW,225,0.0,-999.0,42,-99.99,,,0.00,Acu-Link.com,2013-03-16 22:42:00,
2013-03-16 18:57:00,34.7,14.5,29.70,SW,225,3.8,-999.0,43,-99.99,,,0.00,Acu-Link.com,2013-03-16 22:57:00,
2013-03-16 19:13:00,34.5,14.9,29.71,SW,225,1.1,-999.0,44,-99.99,,,0.00,Acu-Link.com,2013-03-16 23:13:00,
2013-03-16 19:28:00,34.2,15.1,29.71,SW,225,2.7,-999.0,45,-99.99,,,0.00,Acu-Link.com,2013-03-16 23:28:00,
2013-03-16 19:43:00,34.0,14.9,29.72,SW,225,1.6,-999.0,45,-99.99,,,0.00,Acu-Link.com,2013-03-16 23:43:00,
2013-03-16 19:59:00,33.6,15.6,29.72,SW,225,0.0,-999.0,47,-99.99,,,0.00,Acu-Link.com,2013-03-16 23:59:00,
2013-03-16 20:14:00,33.6,15.6,29.73,SW,225,0.0,-999.0,47,-99.99,,,0.00,Acu-Link.com,2013-03-17 00:14:00,
2013-03-16 20:29:00,33.6,15.6,29.74,SW,225,0.0,-999.0,47,-99.99,,,0.00,Acu-Link.com,2013-03-17 00:29:00,
2013-03-16 20:44:00,33.6,15.6,29.73,SW,225,0.0,-999.0,47,-99.99,,,0.00,Acu-Link.com,2013-03-17 00:44:00,
2013-03-16 21:00:00,33.6,15.6,29.74,SW,225,0.0,-999.0,47,-99.99,,,0.00,Acu-Link.com,2013-03-17 01:00:00,
2013-03-16 21:15:00,31.6,14.2,29.74,SW,225,2.2,-999.0,48,-99.99,,,0.00,Acu-Link.com,2013-03-17 01:15:00,
2013-03-16 21:30:00,31.6,14.7,29.75,SW,225,0.0,-999.0,49,-99.99,,,0.00,Acu-Link.com,2013-03-17 01:30:00,
2013-03-16 21:46:00,31.3,13.9,29.76,SW,225,0.0,-999.0,48,-99.99,,,0.00,Acu-Link.com,2013-03-17 01:46:00,
2013-03-16 22:01:00,31.6,14.2,29.76,SW,225,0.0,-999.0,48,-99.99,,,0.00,Acu-Link.com,2013-03-17 02:01:00,
2013-03-16 22:32:00,30.9,14.9,29.78,SW,225,0.0,-999.0,51,-99.99,,,0.00,Acu-Link.com,2013-03-17 02:32:00,
2013-03-16 22:47:00,30.6,15.1,29.78,SW,225,0.0,-999.0,52,-99.99,,,0.00,Acu-Link.com,2013-03-17 02:47:00,
2013-03-16 23:17:00,29.3,14.7,29.80,SW,225,0.0,-999.0,54,-99.99,,,0.00,Acu-Link.com,2013-03-17 03:17:00,
2013-03-16 23:32:00,28.0,15.2,29.80,SW,225,0.0,-999.0,58,-99.99,,,0.00,Acu-Link.com,2013-03-17 03:32:00,
2013-03-16 23:48:00,27.1,14.0,29.80,SW,225,1.6,-999.0,57,-99.99,,,0.00,Acu-Link.com,2013-03-17 03:48:00,